Time;durP1;ratioP1;P1;durP2;ratioP2;P2;SDS_P1;SDS_P2;PMS_P1;PMS_P2;Temp;Humidity;BMP_temperature;BMP_pressure;BME280_temperature;BME280_humidity;BME280_pressure;Samples;Min_cycle;Max_cycle;Signal;HPM_P1;HPM_P2
2023/05/18 00:01:29;;;;;;;;;;;;;;;14.98;nan;102683.31;5045138;28;20534;-83
2023/05/18 00:03:55;;;;;;;;;;;;;;;14.91;nan;102684.47;5040871;28;20610;-83
2023/05/18 00:06:24;;;;;;;;;;;;;;;14.89;nan;102691.94;5046138;28;20320;-82
2023/05/18 00:08:49;;;;;;;;;;;;;;;14.84;nan;102689.94;5042685;28;20316;-83
2023/05/18 00:11:15;;;;;;;;;;;;;;;14.78;nan;102696.28;5046890;28;19966;-83
2023/05/18 00:13:40;;;;;;;;;;;;;;;14.69;nan;102695.75;5043553;28;20011;-82
2023/05/18 00:16:06;;;;;;;;;;;;;;;14.62;nan;102707.69;5045168;28;19921;-83
2023/05/18 00:18:32;;;;;;;;;;;;;;;14.55;nan;102706.97;5046756;28;20388;-83
2023/05/18 00:20:58;;;;;;;;;;;;;;;14.47;nan;102708.91;5042296;28;20261;-83
2023/05/18 00:23:28;;;;;;;;;;;;;;;14.40;nan;102707.31;5046736;28;20389;-83
2023/05/18 00:25:55;;;;;;;;;;;;;;;14.36;nan;102708.78;5042404;28;19947;-83
2023/05/18 00:28:20;;;;;;;;;;;;;;;14.33;nan;102709.25;5042674;28;19965;-83
2023/05/18 00:30:45;;;;;;;;;;;;;;;14.29;nan;102721.53;5042647;28;19921;-83
2023/05/18 00:33:10;;;;;;;;;;;;;;;14.25;nan;102712.25;5046377;28;19924;-83
2023/05/18 00:35:36;;;;;;;;;;;;;;;14.19;nan;102719.38;5041563;28;19921;-83
2023/05/18 00:38:01;;;;;;;;;;;;;;;14.18;nan;102718.56;5046017;28;19931;-83
2023/05/18 00:40:28;;;;;;;;;;;;;;;14.17;nan;102716.06;5043849;28;19923;-82
2023/05/18 00:42:53;;;;;;;;;;;;;;;14.12;nan;102721.31;5045146;28;19925;-83
2023/05/18 00:45:18;;;;;;;;;;;;;;;14.08;nan;102726.31;5035750;28;19921;-83
2023/05/18 00:47:44;;;;;;;;;;;;;;;14.04;nan;102721.63;5045668;28;20418;-83
2023/05/18 00:50:09;;;;;;;;;;;;;;;14.02;nan;102729.09;5038894;28;19920;-83
2023/05/18 00:52:35;;;;;;;;;;;;;;;13.96;nan;102725.41;5043467;28;19923;-83
2023/05/18 00:55:01;;;;;;;;;;;;;;;13.90;nan;102732.50;5043812;28;19920;-83
2023/05/18 00:57:27;;;;;;;;;;;;;;;13.88;nan;102731.91;5044596;28;19956;-83
2023/05/18 00:59:52;;;;;;;;;;;;;;;13.84;nan;102737.97;5041581;28;19943;-83
2023/05/18 01:02:19;;;;;;;;;;;;;;;13.80;nan;102736.75;5045283;28;19916;-83
2023/05/18 01:04:44;;;;;;;;;;;;;;;13.76;nan;102736.38;5044026;28;19927;-83
2023/05/18 01:07:09;;;;;;;;;;;;;;;13.73;nan;102736.00;5045770;28;19921;-83
2023/05/18 01:09:35;;;;;;;;;;;;;;;13.68;nan;102733.16;5046707;28;20395;-83
2023/05/18 01:12:33;;;;;;;;;;;;;;;13.64;nan;102740.81;5043467;28;19936;-83
2023/05/18 01:15:11;;;;;;;;;;;;;;;13.58;nan;102747.09;5029882;28;19920;-83
2023/05/18 01:17:36;;;;;;;;;;;;;;;13.54;nan;102737.81;5043057;28;20406;-83
2023/05/18 01:20:22;;;;;;;;;;;;;;;13.53;nan;102741.56;5044876;28;20079;-83
2023/05/18 01:23:14;;;;;;;;;;;;;;;13.49;nan;102751.94;5045429;28;19955;-82
2023/05/18 01:25:54;;;;;;;;;;;;;;;13.47;nan;102756.72;5042840;28;20327;-82
2023/05/18 01:28:31;;;;;;;;;;;;;;;13.46;nan;102748.84;5046845;28;20369;-83
2023/05/18 01:30:57;;;;;;;;;;;;;;;13.43;nan;102746.59;5045611;28;19916;-83
2023/05/18 01:33:23;;;;;;;;;;;;;;;13.41;nan;102754.06;5045381;28;20406;-83
2023/05/18 01:35:49;;;;;;;;;;;;;;;13.37;nan;102753.66;5044291;28;19927;-83
2023/05/18 01:38:20;;;;;;;;;;;;;;;13.34;nan;102748.72;5042626;28;20039;-83
2023/05/18 01:40:55;;;;;;;;;;;;;;;13.33;nan;102746.25;5044702;28;19924;-83
2023/05/18 01:43:22;;;;;;;;;;;;;;;13.30;nan;102748.34;5047429;28;20070;-83
2023/05/18 01:45:50;;;;;;;;;;;;;;;13.28;nan;102745.06;5044390;28;19917;-83
2023/05/18 01:48:17;;;;;;;;;;;;;;;13.28;nan;102746.88;5042840;28;19921;-83
2023/05/18 01:50:44;;;;;;;;;;;;;;;13.25;nan;102755.41;5044370;28;19987;-83
2023/05/18 01:53:10;;;;;;;;;;;;;;;13.19;nan;102750.91;5044011;28;19921;-83
2023/05/18 01:55:36;;;;;;;;;;;;;;;13.17;nan;102750.25;5046681;28;19920;-83
2023/05/18 01:58:01;;;;;;;;;;;;;;;13.15;nan;102765.81;5042784;28;20387;-82
2023/05/18 02:00:27;;;;;;;;;;;;;;;13.10;nan;102768.28;5044747;28;19921;-83
2023/05/18 02:02:52;;;;;;;;;;;;;;;13.06;nan;102765.22;5046076;28;20285;-82
2023/05/18 02:05:18;;;;;;;;;;;;;;;13.02;nan;102762.13;5043613;28;19990;-83
2023/05/18 02:07:46;;;;;;;;;;;;;;;12.98;nan;102760.91;5044706;28;20395;-82
2023/05/18 02:10:11;;;;;;;;;;;;;;;12.95;nan;102761.34;5045757;28;19921;-83
2023/05/18 02:12:37;;;;;;;;;;;;;;;12.93;nan;102762.63;5042736;28;20320;-83
2023/05/18 02:15:04;;;;;;;;;;;;;;;12.89;nan;102762.19;5039002;28;20308;-83
2023/05/18 02:17:32;;;;;;;;;;;;;;;12.86;nan;102761.81;5045240;28;20014;-83
2023/05/18 02:19:58;;;;;;;;;;;;;;;12.81;nan;102762.44;5042949;28;20381;-83
2023/05/18 02:22:23;;;;;;;;;;;;;;;12.76;nan;102767.66;5041604;28;19924;-83
2023/05/18 02:24:49;;;;;;;;;;;;;;;12.73;nan;102760.00;5044639;28;20434;-82
2023/05/18 02:27:15;;;;;;;;;;;;;;;12.69;nan;102761.47;5045117;28;19931;-83
2023/05/18 02:29:40;;;;;;;;;;;;;;;12.67;nan;102767.06;5044981;28;19917;-83
2023/05/18 02:32:06;;;;;;;;;;;;;;;12.64;nan;102759.41;5042830;28;19925;-83
2023/05/18 02:34:31;;;;;;;;;;;;;;;12.61;nan;102759.03;5047550;28;19928;-83
2023/05/18 02:36:57;;;;;;;;;;;;;;;12.58;nan;102770.22;5048697;28;19916;-83
2023/05/18 02:39:22;;;;;;;;;;;;;;;12.56;nan;102765.00;5048212;28;19920;-83
2023/05/18 02:41:48;;;;;;;;;;;;;;;12.52;nan;102766.47;5050103;28;20012;-82
2023/05/18 02:44:13;;;;;;;;;;;;;;;12.50;nan;102770.44;5049641;28;20455;-83
2023/05/18 02:46:38;;;;;;;;;;;;;;;12.45;nan;102776.44;5047726;28;19921;-83
2023/05/18 02:49:03;;;;;;;;;;;;;;;12.40;nan;102774.41;5048487;28;19917;-83
2023/05/18 02:51:30;;;;;;;;;;;;;;;12.39;nan;102777.28;5047478;28;19917;-82
2023/05/18 02:53:56;;;;;;;;;;;;;;;12.39;nan;102779.97;5047640;28;20059;-82
2023/05/18 02:56:22;;;;;;;;;;;;;;;12.36;nan;102775.81;5048545;28;19917;-83
2023/05/18 02:58:47;;;;;;;;;;;;;;;12.35;nan;102782.25;5044537;28;19978;-83
2023/05/18 03:01:12;;;;;;;;;;;;;;;12.35;nan;102778.72;5048306;28;21418;-83
2023/05/18 03:03:40;;;;;;;;;;;;;;;12.35;nan;102778.72;5049037;28;19920;-82
2023/05/18 03:06:07;;;;;;;;;;;;;;;12.32;nan;102785.34;5048840;28;19966;-82
2023/05/18 03:08:33;;;;;;;;;;;;;;;12.29;nan;102784.94;5044282;28;19967;-83
2023/05/18 03:10:58;;;;;;;;;;;;;;;12.25;nan;102784.56;5051478;28;19990;-82
2023/05/18 03:13:24;;;;;;;;;;;;;;;12.23;nan;102791.19;5049045;28;19925;-82
2023/05/18 03:15:50;;;;;;;;;;;;;;;12.21;nan;102790.53;5044674;28;19925;-83
2023/05/18 03:18:16;;;;;;;;;;;;;;;12.20;nan;102783.50;5042977;28;20312;-83
2023/05/18 03:20:42;;;;;;;;;;;;;;;12.16;nan;102785.78;5048792;28;19917;-82
2023/05/18 03:23:08;;;;;;;;;;;;;;;12.15;nan;102789.50;5042748;28;19970;-82
2023/05/18 03:25:36;;;;;;;;;;;;;;;12.12;nan;102784.56;5045304;28;19995;-83
2023/05/18 03:28:04;;;;;;;;;;;;;;;12.10;nan;102789.31;5045738;28;19921;-83
2023/05/18 03:30:33;;;;;;;;;;;;;;;12.11;nan;102782.91;5048167;28;20052;-82
2023/05/18 03:32:59;;;;;;;;;;;;;;;12.12;nan;102789.94;5046440;28;19920;-82
2023/05/18 03:35:24;;;;;;;;;;;;;;;12.12;nan;102789.94;5045817;28;20357;-83
2023/05/18 03:37:49;;;;;;;;;;;;;;;12.09;nan;102793.88;5046700;28;19928;-83
2023/05/18 03:40:15;;;;;;;;;;;;;;;12.11;nan;102801.72;5048824;28;19921;-83
2023/05/18 03:42:41;;;;;;;;;;;;;;;12.13;nan;102799.66;5046587;28;19921;-83
2023/05/18 03:45:10;;;;;;;;;;;;;;;12.14;nan;102811.22;5046857;28;19928;-83
2023/05/18 03:47:35;;;;;;;;;;;;;;;12.14;nan;102816.59;5045683;28;20325;-83
2023/05/18 03:50:02;;;;;;;;;;;;;;;12.15;nan;102813.69;5048202;28;19921;-83
2023/05/18 03:52:28;;;;;;;;;;;;;;;12.17;nan;102810.81;5046908;28;20338;-83
2023/05/18 03:54:54;;;;;;;;;;;;;;;12.19;nan;102817.63;5046844;28;19920;-82
2023/05/18 03:57:19;;;;;;;;;;;;;;;12.21;nan;102820.94;5061016;28;20373;-83
2023/05/18 03:59:45;;;;;;;;;;;;;;;12.24;nan;102812.47;5046551;28;20328;-83
2023/05/18 04:02:10;;;;;;;;;;;;;;;12.29;nan;102826.09;5047027;28;19925;-83
2023/05/18 04:04:40;;;;;;;;;;;;;;;12.33;nan;102830.00;5045529;28;19996;-83
2023/05/18 04:07:06;;;;;;;;;;;;;;;12.38;nan;102826.69;5044204;28;19948;-83
2023/05/18 04:09:31;;;;;;;;;;;;;;;12.42;nan;102836.00;5047867;28;19967;-83
2023/05/18 04:11:57;;;;;;;;;;;;;;;12.47;nan;102832.69;5046005;28;20023;-82
2023/05/18 04:14:23;;;;;;;;;;;;;;;12.52;nan;102831.00;5046152;28;20394;-83
2023/05/18 04:16:49;;;;;;;;;;;;;;;12.59;nan;102841.78;5042516;28;19928;-83
2023/05/18 04:19:15;;;;;;;;;;;;;;;12.66;nan;102829.94;5046592;28;19921;-82
2023/05/18 04:21:42;;;;;;;;;;;;;;;12.72;nan;102833.66;5040928;28;19917;-83
2023/05/18 04:24:07;;;;;;;;;;;;;;;12.80;nan;102843.38;5046351;28;19924;-82
2023/05/18 04:26:35;;;;;;;;;;;;;;;12.86;nan;102837.97;5041884;28;19932;-83
2023/05/18 04:29:00;;;;;;;;;;;;;;;12.90;nan;102852.63;5046399;28;19929;-83
2023/05/18 04:31:26;;;;;;;;;;;;;;;12.99;nan;102847.84;5044595;28;19917;-83
2023/05/18 04:33:52;;;;;;;;;;;;;;;13.10;nan;102849.03;5047204;28;20359;-83
2023/05/18 04:36:19;;;;;;;;;;;;;;;13.23;nan;102847.16;5039405;28;19924;-83
2023/05/18 04:38:44;;;;;;;;;;;;;;;13.33;nan;102853.94;5041408;28;20320;-83
2023/05/18 04:41:10;;;;;;;;;;;;;;;13.43;nan;102856.97;5046126;28;19924;-83
2023/05/18 04:43:35;;;;;;;;;;;;;;;13.47;nan;102853.66;5045632;28;20012;-83
2023/05/18 04:46:01;;;;;;;;;;;;;;;13.59;nan;102857.31;5043898;28;19962;-83
2023/05/18 04:48:28;;;;;;;;;;;;;;;13.74;nan;102858.88;5047485;28;19952;-83
2023/05/18 04:50:54;;;;;;;;;;;;;;;13.86;nan;102843.66;5044468;28;19920;-83
2023/05/18 04:53:20;;;;;;;;;;;;;;;13.99;nan;102848.09;5045439;28;20151;-83
2023/05/18 04:55:48;;;;;;;;;;;;;;;14.09;nan;102848.44;5044487;28;19916;-83
2023/05/18 04:58:14;;;;;;;;;;;;;;;14.14;nan;102844.03;5045748;28;19929;-83
2023/05/18 05:00:39;;;;;;;;;;;;;;;14.21;nan;102847.53;5043716;28;19917;-83
2023/05/18 05:03:05;;;;;;;;;;;;;;;14.30;nan;102853.44;5045831;28;19947;-83
2023/05/18 05:05:30;;;;;;;;;;;;;;;14.37;nan;102856.91;5041215;28;19916;-83
2023/05/18 05:07:57;;;;;;;;;;;;;;;14.44;nan;102855.00;5043002;28;19917;-83
2023/05/18 05:10:22;;;;;;;;;;;;;;;14.56;nan;102863.19;5041419;28;20300;-83
2023/05/18 05:12:48;;;;;;;;;;;;;;;14.68;nan;102866.78;5044759;28;19921;-83
2023/05/18 05:15:14;;;;;;;;;;;;;;;14.78;nan;102853.59;5042587;28;20358;-83
2023/05/18 05:17:39;;;;;;;;;;;;;;;14.92;nan;102867.78;5042879;28;19924;-83
2023/05/18 05:20:04;;;;;;;;;;;;;;;15.05;nan;102864.91;5044709;28;19927;-82
2023/05/18 05:22:30;;;;;;;;;;;;;;;15.17;nan;102873.06;5060345;28;20404;-83
2023/05/18 05:24:55;;;;;;;;;;;;;;;15.29;nan;102865.88;5044830;28;19917;-83
2023/05/18 05:27:22;;;;;;;;;;;;;;;15.42;nan;102864.84;5044903;28;20024;-83
2023/05/18 05:29:49;;;;;;;;;;;;;;;15.52;nan;102867.81;5042958;28;20468;-83
2023/05/18 05:32:14;;;;;;;;;;;;;;;15.65;nan;102869.56;5045817;28;20039;-83
2023/05/18 05:34:42;;;;;;;;;;;;;;;15.80;nan;102867.25;5045174;28;20011;-83
2023/05/18 05:37:08;;;;;;;;;;;;;;;15.96;nan;102868.44;5042193;28;19928;-83
2023/05/18 05:39:33;;;;;;;;;;;;;;;16.09;nan;102867.41;5043884;28;19931;-83
2023/05/18 05:41:58;;;;;;;;;;;;;;;16.22;nan;102875.31;5043820;28;19964;-82
2023/05/18 05:44:23;;;;;;;;;;;;;;;16.30;nan;102875.75;5044233;28;20051;-83
2023/05/18 05:46:49;;;;;;;;;;;;;;;16.40;nan;102860.84;5044922;28;20167;-83
2023/05/18 05:49:14;;;;;;;;;;;;;;;16.50;nan;102875.41;5045488;28;20258;-83
2023/05/18 05:51:40;;;;;;;;;;;;;;;16.60;nan;102877.53;5041539;28;20322;-83
2023/05/18 05:54:05;;;;;;;;;;;;;;;16.71;nan;102875.91;5036663;28;19924;-83
2023/05/18 05:56:30;;;;;;;;;;;;;;;16.85;nan;102880.00;5042653;28;19978;-83
2023/05/18 05:58:56;;;;;;;;;;;;;;;16.99;nan;102885.97;5043994;28;19925;-83
2023/05/18 06:01:21;;;;;;;;;;;;;;;17.09;nan;102889.72;5042229;28;19920;-83
2023/05/18 06:03:47;;;;;;;;;;;;;;;17.19;nan;102889.94;5042411;28;19916;-83
2023/05/18 06:06:13;;;;;;;;;;;;;;;17.33;nan;102895.06;5044923;28;20229;-83
2023/05/18 06:08:38;;;;;;;;;;;;;;;17.42;nan;102896.34;5044072;28;20387;-83
2023/05/18 06:11:03;;;;;;;;;;;;;;;17.46;nan;102897.50;5044767;28;19921;-83
2023/05/18 06:13:29;;;;;;;;;;;;;;;17.55;nan;102900.63;5042360;28;20003;-83
2023/05/18 06:15:54;;;;;;;;;;;;;;;17.67;nan;102901.41;5042877;28;20127;-82
2023/05/18 06:18:19;;;;;;;;;;;;;;;17.80;nan;102898.44;5043566;28;19971;-82
2023/05/18 06:20:45;;;;;;;;;;;;;;;17.93;nan;102900.81;5038932;28;19932;-83
2023/05/18 06:23:10;;;;;;;;;;;;;;;18.08;nan;102897.53;5043313;28;19932;-83
2023/05/18 06:25:35;;;;;;;;;;;;;;;18.27;nan;102898.94;5043689;28;19982;-82
2023/05/18 06:28:01;;;;;;;;;;;;;;;18.49;nan;102895.44;5044085;28;20346;-83
2023/05/18 06:30:26;;;;;;;;;;;;;;;18.64;nan;102887.56;5044504;28;20294;-83
2023/05/18 06:32:52;;;;;;;;;;;;;;;18.73;nan;102891.50;5042612;28;19916;-83
2023/05/18 06:35:17;;;;;;;;;;;;;;;18.81;nan;102893.78;5042669;28;20374;-82
2023/05/18 06:37:42;;;;;;;;;;;;;;;18.93;nan;102885.53;5040512;28;20399;-83
2023/05/18 06:40:08;;;;;;;;;;;;;;;19.07;nan;102900.38;5040659;28;19929;-82
2023/05/18 06:42:33;;;;;;;;;;;;;;;19.16;nan;102903.44;5045815;28;20308;-83
2023/05/18 06:44:58;;;;;;;;;;;;;;;19.23;nan;102904.91;5043293;28;20285;-83
2023/05/18 06:47:24;;;;;;;;;;;;;;;19.31;nan;102909.06;5046128;28;19976;-83
2023/05/18 06:49:50;;;;;;;;;;;;;;;19.41;nan;102902.94;5043182;28;19978;-83
2023/05/18 06:52:15;;;;;;;;;;;;;;;19.58;nan;102898.28;5040873;28;20546;-83
2023/05/18 06:54:40;;;;;;;;;;;;;;;19.72;nan;102907.63;5044123;28;19917;-83
2023/05/18 06:57:06;;;;;;;;;;;;;;;19.86;nan;102910.75;5042579;28;19949;-83
2023/05/18 06:59:33;;;;;;;;;;;;;;;19.96;nan;102919.03;5044891;28;19947;-82
2023/05/18 07:01:58;;;;;;;;;;;;;;;20.08;nan;102916.94;5032847;28;20388;-83
2023/05/18 07:04:24;;;;;;;;;;;;;;;20.19;nan;102915.94;5043767;28;20014;-83
2023/05/18 07:06:50;;;;;;;;;;;;;;;20.35;nan;102910.63;5040318;28;20501;-83
2023/05/18 07:09:16;;;;;;;;;;;;;;;20.49;nan;102914.56;5041018;28;19987;-83
2023/05/18 07:11:41;;;;;;;;;;;;;;;20.58;nan;102918.44;5046557;28;19932;-83
2023/05/18 07:14:06;;;;;;;;;;;;;;;20.68;nan;102918.50;5044032;28;19978;-83
2023/05/18 07:16:32;;;;;;;;;;;;;;;20.79;nan;102920.19;5037214;28;19917;-83
2023/05/18 07:18:57;;;;;;;;;;;;;;;20.89;nan;102918.63;5042117;28;19924;-83
2023/05/18 07:21:23;;;;;;;;;;;;;;;20.97;nan;102923.53;5041858;28;19925;-83
2023/05/18 07:23:49;;;;;;;;;;;;;;;21.07;nan;102910.78;5044261;28;20177;-83
2023/05/18 07:26:14;;;;;;;;;;;;;;;21.23;nan;102911.69;5042516;28;19995;-83
2023/05/18 07:28:40;;;;;;;;;;;;;;;21.35;nan;102917.72;5047546;28;20118;-83
2023/05/18 07:31:05;;;;;;;;;;;;;;;21.40;nan;102915.03;5046550;28;20007;-83
2023/05/18 07:33:31;;;;;;;;;;;;;;;21.51;nan;102907.69;5057882;28;19998;-82
2023/05/18 07:35:57;;;;;;;;;;;;;;;21.64;nan;102914.53;5045733;28;19924;-83
2023/05/18 07:38:22;;;;;;;;;;;;;;;21.82;nan;102905.81;5045288;28;19974;-82
2023/05/18 07:40:47;;;;;;;;;;;;;;;21.98;nan;102912.13;5045788;28;20309;-83
2023/05/18 07:43:12;;;;;;;;;;;;;;;22.12;nan;102909.69;5045831;28;19956;-83
2023/05/18 07:45:38;;;;;;;;;;;;;;;22.28;nan;102909.41;5043524;28;20400;-83
2023/05/18 07:48:03;;;;;;;;;;;;;;;22.45;nan;102909.13;5038969;28;20376;-84
2023/05/18 07:50:29;;;;;;;;;;;;;;;22.49;nan;102904.72;5044356;28;20009;-83
2023/05/18 07:52:54;;;;;;;;;;;;;;;22.55;nan;102906.34;5040711;28;19969;-83
2023/05/18 07:55:20;;;;;;;;;;;;;;;22.65;nan;102912.91;5045547;28;20011;-83
2023/05/18 07:57:45;;;;;;;;;;;;;;;22.84;nan;102905.75;5045126;28;19936;-83
2023/05/18 08:00:11;;;;;;;;;;;;;;;23.02;nan;102910.63;5036660;28;20273;-83
2023/05/18 08:02:37;;;;;;;;;;;;;;;23.20;nan;102915.44;5039272;28;20027;-83
2023/05/18 08:05:02;;;;;;;;;;;;;;;23.36;nan;102915.38;5041344;28;19921;-85
2023/05/18 08:07:28;;;;;;;;;;;;;;;23.55;nan;102910.88;5041972;28;19921;-84
2023/05/18 08:09:54;;;;;;;;;;;;;;;23.75;nan;102913.50;5041560;28;19920;-84
2023/05/18 08:12:20;;;;;;;;;;;;;;;23.99;nan;102907.28;5041812;28;19921;-84
2023/05/18 08:14:45;;;;;;;;;;;;;;;24.17;nan;102906.59;5037335;28;20501;-84
2023/05/18 08:17:10;;;;;;;;;;;;;;;24.32;nan;102903.72;5042688;28;20633;-84
2023/05/18 08:19:36;;;;;;;;;;;;;;;24.43;nan;102904.47;5043798;28;20350;-84
2023/05/18 08:22:02;;;;;;;;;;;;;;;24.59;nan;102902.34;5037550;28;19920;-84
2023/05/18 08:24:27;;;;;;;;;;;;;;;24.66;nan;102906.41;5038676;28;20011;-84
2023/05/18 08:26:52;;;;;;;;;;;;;;;24.69;nan;102908.53;5043331;28;20328;-83
2023/05/18 08:29:18;;;;;;;;;;;;;;;24.65;nan;102907.50;5043746;28;20003;-84
2023/05/18 08:31:43;;;;;;;;;;;;;;;24.71;nan;102906.31;5038907;28;19963;-81
2023/05/18 08:34:08;;;;;;;;;;;;;;;24.88;nan;102903.13;5040499;28;19916;-82
2023/05/18 08:36:34;;;;;;;;;;;;;;;25.04;nan;102903.78;5039484;28;19925;-85
2023/05/18 08:39:01;;;;;;;;;;;;;;;25.26;nan;102914.19;5041170;28;20414;-84
2023/05/18 08:41:39;;;;;;;;;;;;;;;25.50;nan;102909.44;5039961;28;20338;-81
2023/05/18 08:44:08;;;;;;;;;;;;;;;25.54;nan;102901.44;5044650;28;19960;-81
2023/05/18 08:46:34;;;;;;;;;;;;;;;25.58;nan;102913.44;5044793;28;19920;-82
2023/05/18 08:49:01;;;;;;;;;;;;;;;25.55;nan;102909.38;5041217;28;19928;-81
2023/05/18 08:51:28;;;;;;;;;;;;;;;25.56;nan;102907.44;5037684;28;19920;-86
2023/05/18 08:53:53;;;;;;;;;;;;;;;25.52;nan;102901.75;5041677;28;19999;-85
2023/05/18 08:56:21;;;;;;;;;;;;;;;25.43;nan;102905.44;5044277;28;19928;-84
2023/05/18 08:58:49;;;;;;;;;;;;;;;25.28;nan;102903.72;5039852;28;20345;-83
2023/05/18 09:01:14;;;;;;;;;;;;;;;25.02;nan;102905.19;5035739;28;20429;-83
2023/05/18 09:03:40;;;;;;;;;;;;;;;24.90;nan;102898.16;5040879;28;19917;-83
2023/05/18 09:06:06;;;;;;;;;;;;;;;24.80;nan;102906.50;5039788;28;20003;-82
2023/05/18 09:08:32;;;;;;;;;;;;;;;24.63;nan;102904.25;5040323;28;19927;-82
2023/05/18 09:10:58;;;;;;;;;;;;;;;24.59;nan;102902.34;5042759;28;19991;-84
2023/05/18 09:13:25;;;;;;;;;;;;;;;24.57;nan;102896.34;5042299;28;20039;-82
2023/05/18 09:15:51;;;;;;;;;;;;;;;24.54;nan;102903.22;5038944;28;20057;-83
2023/05/18 09:18:16;;;;;;;;;;;;;;;24.53;nan;102909.00;5039302;28;20009;-84
2023/05/18 09:20:42;;;;;;;;;;;;;;;24.45;nan;102904.97;5041638;28;20535;-81
2023/05/18 09:23:07;;;;;;;;;;;;;;;24.34;nan;102903.44;5039306;28;19920;-81
2023/05/18 09:25:35;;;;;;;;;;;;;;;24.28;nan;102902.66;5037328;28;19921;-81
2023/05/18 09:28:02;;;;;;;;;;;;;;;24.31;nan;102893.88;5041923;28;19932;-81
2023/05/18 09:30:28;;;;;;;;;;;;;;;24.32;nan;102901.00;5043846;28;19940;-80
2023/05/18 09:32:53;;;;;;;;;;;;;;;24.38;nan;102899.81;5042706;28;20411;-82
2023/05/18 09:35:18;;;;;;;;;;;;;;;24.55;nan;102898.56;5038871;28;19970;-84
2023/05/18 09:37:44;;;;;;;;;;;;;;;24.75;nan;102889.28;5037057;28;19932;-84
2023/05/18 09:40:09;;;;;;;;;;;;;;;24.96;nan;102885.22;5042101;28;19920;-85
2023/05/18 09:42:42;;;;;;;;;;;;;;;25.05;nan;102899.91;5036882;28;19921;-82
2023/05/18 09:45:17;;;;;;;;;;;;;;;25.02;nan;102895.03;5041345;28;20561;-80
2023/05/18 09:47:43;;;;;;;;;;;;;;;24.96;nan;102894.25;5037740;28;20423;-81
2023/05/18 09:50:08;;;;;;;;;;;;;;;25.07;nan;102894.13;5040062;28;19927;-81
2023/05/18 09:52:43;;;;;;;;;;;;;;;25.21;nan;102897.78;5042870;28;19939;-80
2023/05/18 09:55:11;;;;;;;;;;;;;;;25.42;nan;102887.34;5040067;28;20265;-83
2023/05/18 09:57:40;;;;;;;;;;;;;;;25.45;nan;102882.06;5039112;28;20759;-84
2023/05/18 10:00:10;;;;;;;;;;;;;;;25.48;nan;102884.22;5035883;28;19935;-83
2023/05/18 10:02:40;;;;;;;;;;;;;;;25.68;nan;102885.88;5038450;28;20507;-81
2023/05/18 10:05:06;;;;;;;;;;;;;;;25.97;nan;102882.91;5044416;28;20379;-82
2023/05/18 10:07:33;;;;;;;;;;;;;;;26.27;nan;102878.00;5039660;28;19925;-81
2023/05/18 10:10:02;;;;;;;;;;;;;;;26.51;nan;102878.66;5038579;28;19977;-82
2023/05/18 10:12:28;;;;;;;;;;;;;;;26.68;nan;102873.34;5042164;28;19925;-81
2023/05/18 10:14:53;;;;;;;;;;;;;;;26.97;nan;102866.72;5043436;28;20334;-84
2023/05/18 10:17:18;;;;;;;;;;;;;;;27.08;nan;102857.13;5040936;28;20384;-84
2023/05/18 10:19:45;;;;;;;;;;;;;;;27.16;nan;102863.84;5043860;28;19929;-82
2023/05/18 10:22:11;;;;;;;;;;;;;;;27.18;nan;102864.34;5037367;28;19917;-84
2023/05/18 10:24:42;;;;;;;;;;;;;;;27.34;nan;102863.69;5044906;28;20379;-84
2023/05/18 10:27:08;;;;;;;;;;;;;;;27.55;nan;102861.25;5044150;28;19967;-84
2023/05/18 10:29:36;;;;;;;;;;;;;;;27.78;nan;102858.53;5045459;28;20397;-81
2023/05/18 10:32:02;;;;;;;;;;;;;;;27.95;nan;102869.66;5043169;28;19916;-81
2023/05/18 10:34:28;;;;;;;;;;;;;;;28.06;nan;102859.19;5042088;28;20534;-84
2023/05/18 10:36:55;;;;;;;;;;;;;;;28.09;nan;102858.56;5046386;28;19920;-84
2023/05/18 10:39:21;;;;;;;;;;;;;;;28.06;nan;102850.94;5044928;28;21498;-84
2023/05/18 10:41:47;;;;;;;;;;;;;;;28.13;nan;102852.09;5044042;28;20315;-82
2023/05/18 10:44:12;;;;;;;;;;;;;;;28.28;nan;102851.69;5041379;28;19924;-83
2023/05/18 10:46:39;;;;;;;;;;;;;;;28.48;nan;102841.22;5042263;28;20393;-82
2023/05/18 10:49:10;;;;;;;;;;;;;;;28.65;nan;102837.72;5044393;28;19931;-85
2023/05/18 10:51:36;;;;;;;;;;;;;;;28.77;nan;102846.19;5042944;28;19921;-82
2023/05/18 10:54:09;;;;;;;;;;;;;;;28.91;nan;102838.63;5043849;28;20063;-85
2023/05/18 10:56:36;;;;;;;;;;;;;;;29.13;nan;102838.47;5039578;28;20024;-81
2023/05/18 10:59:03;;;;;;;;;;;;;;;29.28;nan;102839.13;5045784;28;19966;-81
2023/05/18 11:01:28;;;;;;;;;;;;;;;29.41;nan;102836.16;5043221;28;19924;-84
2023/05/18 11:03:53;;;;;;;;;;;;;;;29.59;nan;102839.75;5047834;28;19928;-82
2023/05/18 11:06:22;;;;;;;;;;;;;;;29.66;nan;102831.78;5040318;28;19928;-82
2023/05/18 11:08:48;;;;;;;;;;;;;;;29.67;nan;102830.66;5043638;28;19920;-81
2023/05/18 11:11:14;;;;;;;;;;;;;;;29.69;nan;102831.13;5045522;28;20399;-84
2023/05/18 11:13:44;;;;;;;;;;;;;;;29.74;nan;102841.19;5047804;28;20489;-81
2023/05/18 11:16:09;;;;;;;;;;;;;;;29.74;nan;102839.25;5045787;28;19920;-85
2023/05/18 11:18:36;;;;;;;;;;;;;;;29.70;nan;102841.03;5042105;28;19931;-81
2023/05/18 11:21:02;;;;;;;;;;;;;;;29.67;nan;102836.19;5038555;28;20383;-81
2023/05/18 11:23:33;;;;;;;;;;;;;;;29.67;nan;102838.13;5045586;28;19956;-82
2023/05/18 11:26:01;;;;;;;;;;;;;;;29.76;nan;102853.53;5048078;28;19924;-81
2023/05/18 11:28:27;;;;;;;;;;;;;;;29.81;nan;102841.53;5043338;28;19928;-83
2023/05/18 11:30:52;;;;;;;;;;;;;;;29.88;nan;102846.53;5042412;28;19920;-81
2023/05/18 11:33:20;;;;;;;;;;;;;;;29.94;nan;102843.25;5044813;28;19916;-82
2023/05/18 11:35:58;;;;;;;;;;;;;;;30.07;nan;102844.22;5043048;28;19921;-83
2023/05/18 11:38:44;;;;;;;;;;;;;;;30.18;nan;102831.66;5043190;28;20015;-82
2023/05/18 11:41:25;;;;;;;;;;;;;;;30.25;nan;102831.94;5036516;28;19920;-82
2023/05/18 11:43:57;;;;;;;;;;;;;;;30.05;nan;102829.94;5040046;28;20130;-84
2023/05/18 11:46:22;;;;;;;;;;;;;;;29.91;nan;102832.84;5042598;28;20304;-84
2023/05/18 11:48:49;;;;;;;;;;;;;;;29.74;nan;102828.19;5037738;28;19920;-82
2023/05/18 11:51:16;;;;;;;;;;;;;;;29.79;nan;102829.97;5038534;28;20195;-85
2023/05/18 11:53:41;;;;;;;;;;;;;;;29.89;nan;102826.84;5040053;28;19927;-85
2023/05/18 11:56:10;;;;;;;;;;;;;;;30.05;nan;102824.41;5042366;28;19921;-85
2023/05/18 11:58:35;;;;;;;;;;;;;;;30.04;nan;102822.78;5041450;28;19925;-84
2023/05/18 12:01:01;;;;;;;;;;;;;;;30.02;nan;102827.78;5041238;28;19936;-83
2023/05/18 12:03:29;;;;;;;;;;;;;;;30.15;nan;102825.97;5041413;28;19927;-85
2023/05/18 12:05:59;;;;;;;;;;;;;;;30.28;nan;102825.75;5039073;28;20389;-83
2023/05/18 12:08:28;;;;;;;;;;;;;;;30.52;nan;102816.00;5038785;28;20012;-82
2023/05/18 12:10:53;;;;;;;;;;;;;;;30.70;nan;102817.56;5041294;28;20355;-82
2023/05/18 12:13:19;;;;;;;;;;;;;;;30.88;nan;102823.78;5036698;28;19936;-81
2023/05/18 12:15:45;;;;;;;;;;;;;;;30.90;nan;102816.78;5051598;28;19920;-85
2023/05/18 12:18:11;;;;;;;;;;;;;;;30.96;nan;102822.91;5041596;28;19932;-86
2023/05/18 12:20:38;;;;;;;;;;;;;;;30.87;nan;102806.38;5040895;28;19917;-84
2023/05/18 12:23:03;;;;;;;;;;;;;;;30.63;nan;102814.53;5040619;28;19924;-81
2023/05/18 12:25:29;;;;;;;;;;;;;;;30.54;nan;102813.75;5037281;28;20001;-83
2023/05/18 12:27:55;;;;;;;;;;;;;;;30.54;nan;102811.78;5038361;28;19924;-81
2023/05/18 12:30:22;;;;;;;;;;;;;;;30.65;nan;102820.53;5041468;28;19947;-82
2023/05/18 12:32:51;;;;;;;;;;;;;;;30.81;nan;102817.97;5040580;28;20089;-83
2023/05/18 12:35:22;;;;;;;;;;;;;;;30.93;nan;102809.75;5039562;28;19932;-83
2023/05/18 12:37:47;;;;;;;;;;;;;;;30.89;nan;102812.41;5037895;28;20052;-81
2023/05/18 12:40:14;;;;;;;;;;;;;;;30.73;nan;102814.16;5040055;28;19924;-83
2023/05/18 12:42:39;;;;;;;;;;;;;;;30.52;nan;102816.84;5040930;28;19955;-83
2023/05/18 12:45:05;;;;;;;;;;;;;;;30.50;nan;102813.59;5039532;28;19921;-83
2023/05/18 12:47:31;;;;;;;;;;;;;;;30.62;nan;102812.91;5037061;28;20041;-84
2023/05/18 12:49:59;;;;;;;;;;;;;;;30.67;nan;102810.75;5037161;28;20093;-85
2023/05/18 12:52:25;;;;;;;;;;;;;;;30.72;nan;102807.00;5040797;28;19931;-84
2023/05/18 12:54:57;;;;;;;;;;;;;;;30.76;nan;102805.16;5039593;28;20396;-85